Time;durP1;ratioP1;P1;durP2;ratioP2;P2;SDS_P1;SDS_P2;PMS_P1;PMS_P2;Temp;Humidity;BMP_temperature;BMP_pressure;BME280_temperature;BME280_humidity;BME280_pressure;Samples;Min_cycle;Max_cycle;Signal;HPM_P1;HPM_P2
2021/08/17 00:01:06;;;;;;;3.75;2.92;;;;;;;20.42;57.39;100419.28;4995429;28;20072;-47
2021/08/17 00:03:31;;;;;;;2.78;2.53;;;;;;;20.38;57.70;100427.47;4991793;28;20109;-47
2021/08/17 00:05:57;;;;;;;2.63;2.42;;;;;;;20.36;57.85;100429.38;5001117;28;20051;-47
2021/08/17 00:08:22;;;;;;;4.15;3.03;;;;;;;20.35;57.59;100416.09;4993338;28;20058;-47
2021/08/17 00:10:47;;;;;;;3.65;2.85;;;;;;;20.32;57.36;100417.13;4995480;28;20097;-48
2021/08/17 00:13:13;;;;;;;5.20;3.05;;;;;;;20.32;57.57;100419.78;4996001;28;20106;-47
2021/08/17 00:15:38;;;;;;;4.20;2.80;;;;;;;20.31;57.63;100420.72;4995188;28;20345;-48
2021/08/17 00:18:03;;;;;;;5.63;2.88;;;;;;;20.35;57.45;100421.44;4993684;28;20045;-47
2021/08/17 00:20:30;;;;;;;3.20;2.70;;;;;;;20.31;57.57;100415.38;4997239;28;20054;-47
2021/08/17 00:22:55;;;;;;;3.60;2.95;;;;;;;20.33;57.61;100418.84;4994309;28;20100;-48
2021/08/17 00:25:21;;;;;;;4.18;3.22;;;;;;;20.28;57.29;100428.94;4997071;28;20017;-47
2021/08/17 00:27:46;;;;;;;3.88;2.80;;;;;;;20.26;57.41;100417.44;4996606;28;20046;-47
2021/08/17 00:30:12;;;;;;;4.03;2.90;;;;;;;20.27;57.46;100419.16;4994178;28;20068;-48
2021/08/17 00:32:38;;;;;;;2.95;2.47;;;;;;;20.26;57.26;100417.44;4991951;28;20044;-47
2021/08/17 00:35:04;;;;;;;3.10;2.70;;;;;;;20.22;57.61;100429.25;4994076;28;20030;-48
2021/08/17 00:37:30;;;;;;;4.60;3.08;;;;;;;20.24;57.28;100435.41;4997743;28;20069;-47
2021/08/17 00:39:55;;;;;;;4.80;2.92;;;;;;;20.20;57.37;100429.34;4995846;28;20213;-47
2021/08/17 00:42:21;;;;;;;4.35;2.95;;;;;;;20.19;57.54;100432.09;4992659;28;20030;-48
2021/08/17 00:44:46;;;;;;;3.45;2.70;;;;;;;20.16;57.39;100433.13;5000061;28;20034;-48
2021/08/17 00:47:13;;;;;;;2.90;2.55;;;;;;;20.20;57.12;100423.13;4992663;28;20045;-47
2021/08/17 00:49:38;;;;;;;3.58;2.97;;;;;;;20.13;57.44;100414.56;4997021;28;20457;-48
2021/08/17 00:52:08;;;;;;;3.95;3.17;;;;;;;20.16;57.03;100409.03;4991215;28;20427;-48
2021/08/17 00:54:42;;;;;;;3.33;3.03;;;;;;;20.14;57.04;100408.25;4993641;28;20044;-48
2021/08/17 00:57:07;;;;;;;3.97;3.17;;;;;;;20.10;56.99;100399.53;4992555;28;20022;-48
2021/08/17 00:59:33;;;;;;;3.15;2.65;;;;;;;20.10;57.39;100401.31;5011850;28;20031;-47
2021/08/17 01:01:59;;;;;;;3.33;2.97;;;;;;;20.07;57.24;100404.19;4992872;28;20105;-48
2021/08/17 01:04:24;;;;;;;3.70;3.03;;;;;;;20.08;57.39;100408.59;4993685;28;20026;-47
2021/08/17 01:06:49;;;;;;;3.85;2.80;;;;;;;20.06;57.14;100415.81;4997484;28;20033;-48
2021/08/17 01:09:15;;;;;;;4.22;3.50;;;;;;;20.01;57.15;100416.09;4991086;28;20053;-47
2021/08/17 01:11:45;;;;;;;5.10;3.05;;;;;;;20.03;57.17;100424.88;4995453;28;20030;-47
2021/08/17 01:14:12;;;;;;;6.88;3.53;;;;;;;20.02;57.22;100430.31;4993377;28;20520;-47
2021/08/17 01:16:37;;;;;;;4.45;3.28;;;;;;;19.98;57.51;100421.56;4993366;28;20038;-49
2021/08/17 01:19:03;;;;;;;5.60;3.42;;;;;;;19.99;57.40;100420.63;4994449;28;20036;-48
2021/08/17 01:21:30;;;;;;;3.83;3.05;;;;;;;20.00;57.35;100427.72;4994128;28;20334;-47
2021/08/17 01:23:55;;;;;;;4.18;3.38;;;;;;;19.98;57.50;100424.25;4998428;28;20065;-48
2021/08/17 01:26:20;;;;;;;5.13;3.00;;;;;;;19.98;57.41;100425.09;4992614;28;20057;-48
2021/08/17 01:28:46;;;;;;;3.30;3.00;;;;;;;19.98;57.44;100425.09;4989018;28;20468;-47
2021/08/17 01:31:11;;;;;;;3.70;2.88;;;;;;;19.98;57.25;100426.94;4993636;28;20041;-48
2021/08/17 01:33:36;;;;;;;3.40;3.10;;;;;;;19.92;57.41;100420.09;4991619;28;20022;-48
2021/08/17 01:36:03;;;;;;;3.90;3.50;;;;;;;19.94;57.66;100436.06;4994345;28;20100;-47
2021/08/17 01:38:28;;;;;;;4.63;3.03;;;;;;;19.95;57.36;100427.97;4997458;28;20025;-48
2021/08/17 01:40:53;;;;;;;3.58;3.28;;;;;;;19.92;57.56;100424.56;4996670;28;20033;-48
2021/08/17 01:43:19;;;;;;;3.42;3.13;;;;;;;19.93;57.38;100431.63;4988605;28;20045;-48
2021/08/17 01:46:01;;;;;;;4.70;3.63;;;;;;;19.92;57.67;100420.09;4991192;28;20030;-50
2021/08/17 01:48:28;;;;;;;3.42;3.13;;;;;;;19.92;57.41;100429.91;4991120;28;20110;-47
2021/08/17 01:50:53;;;;;;;4.07;2.70;;;;;;;19.88;57.89;100424.72;4992713;28;20474;-48
2021/08/17 01:53:21;;;;;;;4.72;3.40;;;;;;;19.88;57.64;100429.22;4992047;28;20040;-47
2021/08/17 01:55:46;;;;;;;5.75;3.45;;;;;;;19.84;57.42;100433.00;4996102;28;20457;-48
2021/08/17 01:58:11;;;;;;;3.85;3.42;;;;;;;19.85;57.53;100446.28;4992493;28;20478;-49
2021/08/17 02:00:37;;;;;;;4.15;3.65;;;;;;;19.85;57.55;100446.28;4996696;28;20498;-49
2021/08/17 02:03:02;;;;;;;4.03;3.55;;;;;;;19.84;57.77;100449.91;4996295;28;20038;-48
2021/08/17 02:05:27;;;;;;;5.95;3.38;;;;;;;19.82;57.54;100438.44;4996207;28;20023;-48
2021/08/17 02:07:56;;;;;;;3.35;2.97;;;;;;;19.82;57.38;100440.22;4992372;28;20033;-48
2021/08/17 02:10:21;;;;;;;5.18;3.45;;;;;;;19.81;57.45;100434.00;4993057;28;20478;-49
2021/08/17 02:12:46;;;;;;;3.50;3.20;;;;;;;19.78;57.67;100441.34;4992857;28;20057;-49
2021/08/17 02:15:12;;;;;;;3.92;3.25;;;;;;;19.78;57.28;100439.53;4992593;28;20034;-49
2021/08/17 02:17:37;;;;;;;4.43;3.45;;;;;;;19.75;57.66;100437.88;5000336;28;20285;-49
2021/08/17 02:20:04;;;;;;;4.18;3.22;;;;;;;19.75;57.55;100445.88;4988954;28;20039;-49
2021/08/17 02:22:29;;;;;;;5.25;3.63;;;;;;;19.76;57.70;100441.41;4993961;28;20394;-49
2021/08/17 02:24:55;;;;;;;3.42;3.13;;;;;;;19.74;57.60;100443.31;4995666;28;20018;-49
2021/08/17 02:27:20;;;;;;;4.57;4.07;;;;;;;19.71;57.62;100443.47;4992747;28;20541;-49
2021/08/17 02:29:45;;;;;;;3.70;3.40;;;;;;;19.72;57.45;100439.84;4995230;28;20014;-48
2021/08/17 02:32:10;;;;;;;4.13;2.97;;;;;;;19.67;57.48;100433.88;4997109;28;20033;-49
2021/08/17 02:34:36;;;;;;;5.25;3.42;;;;;;;19.67;57.38;100439.22;4994365;28;20034;-49
2021/08/17 02:37:01;;;;;;;5.47;3.40;;;;;;;19.67;57.56;100431.19;4993923;28;20105;-49
2021/08/17 02:39:26;;;;;;;5.72;3.63;;;;;;;19.69;57.28;100438.19;4996803;28;20109;-48
2021/08/17 02:41:52;;;;;;;4.68;3.67;;;;;;;19.68;57.54;100438.28;4994065;28;20038;-49
2021/08/17 02:44:17;;;;;;;4.82;3.72;;;;;;;19.64;57.62;100436.69;4999775;28;20018;-48
2021/08/17 02:46:42;;;;;;;3.78;2.88;;;;;;;19.61;57.63;100438.56;4996534;28;20027;-49
2021/08/17 02:49:09;;;;;;;4.00;3.25;;;;;;;19.61;57.35;100443.94;5002417;28;20374;-48
2021/08/17 02:51:35;;;;;;;4.45;3.55;;;;;;;19.61;57.65;100443.94;4996975;28;20389;-49
2021/08/17 02:54:00;;;;;;;3.55;3.08;;;;;;;19.60;57.49;100446.69;4990513;28;20486;-48
2021/08/17 02:56:25;;;;;;;3.85;3.53;;;;;;;19.58;57.68;100441.41;4996128;28;20057;-48
2021/08/17 02:58:50;;;;;;;5.00;2.90;;;;;;;19.55;57.63;100443.38;4997641;28;20091;-49
2021/08/17 03:01:16;;;;;;;5.50;4.07;;;;;;;19.57;57.45;100449.53;4996411;28;20080;-49
2021/08/17 03:03:42;;;;;;;4.10;3.35;;;;;;;19.54;57.87;100453.19;4996395;28;20023;-49
2021/08/17 03:06:07;;;;;;;3.47;3.17;;;;;;;19.53;57.70;100464.84;4998113;28;20056;-49
2021/08/17 03:08:32;;;;;;;4.20;2.65;;;;;;;19.54;57.59;100458.56;4997492;28;20026;-49
2021/08/17 03:10:57;;;;;;;3.60;3.30;;;;;;;19.50;57.56;100462.31;4997091;28;20050;-49
2021/08/17 03:13:23;;;;;;;3.53;3.17;;;;;;;19.51;57.43;100464.09;4995455;28;20029;-49
2021/08/17 03:15:48;;;;;;;5.00;3.25;;;;;;;19.47;57.66;100457.13;4997986;28;20022;-48
2021/08/17 03:18:13;;;;;;;3.30;2.97;;;;;;;19.45;57.80;100470.59;4997976;28;20492;-49
2021/08/17 03:20:39;;;;;;;4.68;3.15;;;;;;;19.44;57.47;100473.34;4999244;28;20540;-49
2021/08/17 03:23:05;;;;;;;3.40;2.78;;;;;;;19.43;57.72;100471.59;4994832;28;20377;-49
2021/08/17 03:25:30;;;;;;;3.30;3.00;;;;;;;19.42;57.74;100470.75;4995261;28;20054;-48
2021/08/17 03:27:56;;;;;;;5.55;2.97;;;;;;;19.41;57.88;100473.50;4998241;28;20628;-49
2021/08/17 03:30:23;;;;;;;3.80;3.13;;;;;;;19.40;57.63;100471.78;4997962;28;20053;-48
2021/08/17 03:32:48;;;;;;;3.67;3.33;;;;;;;19.38;58.00;100470.97;4995291;28;20461;-49
2021/08/17 03:35:14;;;;;;;3.60;2.80;;;;;;;19.38;57.89;100479.00;4993143;28;20466;-48
2021/08/17 03:37:40;;;;;;;4.10;3.20;;;;;;;19.41;57.72;100469.00;4993815;28;20029;-49
2021/08/17 03:40:07;;;;;;;2.80;2.47;;;;;;;19.40;57.63;100482.47;4996083;28;20164;-48
2021/08/17 03:42:32;;;;;;;3.03;2.70;;;;;;;19.39;57.90;100470.00;4996222;28;20425;-48
2021/08/17 03:44:58;;;;;;;3.05;2.75;;;;;;;19.36;57.94;100471.91;4996615;28;20018;-48
2021/08/17 03:47:24;;;;;;;2.30;2.10;;;;;;;19.35;57.92;100477.34;4991862;28;20354;-49
2021/08/17 03:49:49;;;;;;;4.25;3.08;;;;;;;19.32;58.06;100481.03;4996799;28;20452;-49
2021/08/17 03:52:14;;;;;;;2.00;1.85;;;;;;;19.30;57.86;100468.66;4994510;28;20026;-48
2021/08/17 03:54:39;;;;;;;3.28;2.60;;;;;;;19.29;57.76;100467.81;5000136;28;20030;-49
2021/08/17 03:57:05;;;;;;;3.53;2.38;;;;;;;19.30;57.89;100466.84;4994250;28;20037;-49
2021/08/17 03:59:30;;;;;;;3.45;2.63;;;;;;;19.28;58.23;100463.41;5000671;28;20359;-49
2021/08/17 04:01:55;;;;;;;3.78;2.42;;;;;;;19.26;57.84;100465.28;4995165;28;20030;-49
2021/08/17 04:04:21;;;;;;;3.05;2.53;;;;;;;19.28;58.16;100467.88;5000463;28;20081;-48
2021/08/17 04:06:46;;;;;;;4.28;2.53;;;;;;;19.26;58.00;100457.25;4997472;28;20019;-49
2021/08/17 04:09:11;;;;;;;3.28;2.60;;;;;;;19.23;58.31;100468.09;4995940;28;20041;-49
2021/08/17 04:11:37;;;;;;;3.05;2.75;;;;;;;19.22;57.80;100461.91;4995948;28;20089;-49
2021/08/17 04:14:02;;;;;;;2.63;2.38;;;;;;;19.21;58.27;100468.16;4993633;28;20109;-48
2021/08/17 04:16:27;;;;;;;3.10;2.53;;;;;;;19.20;58.09;100468.25;4993106;28;20022;-48
2021/08/17 04:18:53;;;;;;;2.60;2.40;;;;;;;19.21;57.59;100478.03;5002676;28;20382;-49
2021/08/17 04:21:18;;;;;;;2.80;2.60;;;;;;;19.20;57.86;100481.63;4998620;28;20037;-48
2021/08/17 04:23:43;;;;;;;4.47;3.08;;;;;;;19.18;58.08;100488.84;4995777;28;20479;-48
2021/08/17 04:26:09;;;;;;;2.90;2.35;;;;;;;19.15;58.25;100484.53;4998395;28;20520;-48
2021/08/17 04:28:35;;;;;;;2.30;2.15;;;;;;;19.16;58.05;100482.69;4997213;28;20026;-48
2021/08/17 04:31:00;;;;;;;4.18;2.83;;;;;;;19.13;58.18;100486.41;4996829;28;20018;-48
2021/08/17 04:33:25;;;;;;;2.30;2.10;;;;;;;19.13;58.17;100485.53;4993027;28;20026;-48
2021/08/17 04:35:50;;;;;;;2.80;2.47;;;;;;;19.13;58.33;100482.84;4994694;28;20037;-48
2021/08/17 04:38:16;;;;;;;3.33;2.08;;;;;;;19.10;58.39;100479.41;4998790;28;20029;-48
2021/08/17 04:40:41;;;;;;;2.45;2.25;;;;;;;19.12;58.19;100489.13;4998032;28;20030;-48
2021/08/17 04:43:06;;;;;;;3.63;2.22;;;;;;;19.10;58.17;100486.53;4994173;28;20037;-48
2021/08/17 04:45:32;;;;;;;2.55;2.35;;;;;;;19.08;58.40;100483.09;4998800;28;20041;-49
2021/08/17 04:47:57;;;;;;;2.78;2.45;;;;;;;19.07;58.15;100486.69;4993702;28;20510;-48
2021/08/17 04:50:23;;;;;;;2.78;2.35;;;;;;;19.04;58.51;100487.66;4997216;28;20386;-48
2021/08/17 04:52:48;;;;;;;3.85;2.22;;;;;;;19.04;58.16;100492.16;4997180;28;20490;-48
2021/08/17 04:55:14;;;;;;;3.50;2.42;;;;;;;19.04;57.98;100493.00;4994912;28;20382;-48
2021/08/17 04:57:50;;;;;;;2.97;2.17;;;;;;;19.00;58.33;100483.41;4995814;28;20493;-48
2021/08/17 05:00:16;;;;;;;4.05;2.45;;;;;;;19.02;58.27;100502.03;4999251;28;20057;-49
2021/08/17 05:02:41;;;;;;;3.70;2.53;;;;;;;19.04;58.17;100509.03;4995160;28;20068;-48
2021/08/17 05:05:07;;;;;;;3.20;2.63;;;;;;;19.04;58.26;100516.22;4991200;28;20049;-48
2021/08/17 05:07:36;;;;;;;4.45;2.65;;;;;;;19.02;58.25;100523.44;4992284;28;20065;-49
2021/08/17 05:10:01;;;;;;;3.78;2.30;;;;;;;18.98;58.34;100520.88;4997991;28;20455;-49
2021/08/17 05:12:27;;;;;;;5.38;3.00;;;;;;;19.00;58.32;100522.66;4990695;28;20538;-48
2021/08/17 05:14:52;;;;;;;3.35;2.42;;;;;;;18.97;58.21;100521.84;4993757;28;20049;-49
2021/08/17 05:17:17;;;;;;;3.55;2.65;;;;;;;18.96;58.49;100524.56;4992514;28;20060;-48
2021/08/17 05:19:42;;;;;;;3.72;2.78;;;;;;;18.97;58.37;100520.97;4993674;28;20058;-49
2021/08/17 05:22:09;;;;;;;4.55;2.55;;;;;;;18.93;58.29;100519.38;4996331;28;20046;-48
2021/08/17 05:24:34;;;;;;;3.72;2.47;;;;;;;18.90;58.69;100507.03;4993678;28;20418;-48
2021/08/17 05:26:59;;;;;;;2.88;2.67;;;;;;;18.93;58.14;100520.25;4988313;28;20022;-49
2021/08/17 05:29:25;;;;;;;2.85;2.47;;;;;;;18.93;58.46;100527.38;4999124;28;20021;-49
2021/08/17 05:31:50;;;;;;;3.92;2.58;;;;;;;18.90;58.27;100532.91;4993070;28;20030;-48
2021/08/17 05:34:15;;;;;;;3.13;2.20;;;;;;;18.92;58.20;100533.69;4994940;28;20030;-49
2021/08/17 05:36:40;;;;;;;4.38;2.65;;;;;;;18.90;58.41;100527.56;4991485;28;20032;-48
2021/08/17 05:39:06;;;;;;;4.47;2.65;;;;;;;18.88;58.52;100537.44;4996786;28;20466;-49
2021/08/17 05:41:31;;;;;;;3.90;2.75;;;;;;;18.89;58.28;100528.47;4996342;28;20524;-48
2021/08/17 05:43:56;;;;;;;5.00;2.15;;;;;;;18.87;58.53;100536.56;4993726;28;20025;-48
2021/08/17 05:46:22;;;;;;;3.97;2.85;;;;;;;18.85;58.54;100543.78;4992289;28;20306;-48
2021/08/17 05:48:47;;;;;;;5.82;2.90;;;;;;;18.86;58.40;100542.84;4993622;28;20061;-49
2021/08/17 05:51:12;;;;;;;3.40;3.08;;;;;;;18.85;58.49;100536.63;4993074;28;20094;-49
2021/08/17 05:53:38;;;;;;;2.55;2.35;;;;;;;18.87;58.42;100541.06;4996508;28;20026;-48
2021/08/17 05:56:04;;;;;;;3.67;2.75;;;;;;;18.83;58.74;100553.66;4996389;28;20030;-48
2021/08/17 05:58:29;;;;;;;3.70;3.10;;;;;;;18.81;58.54;100555.56;4993360;28;20556;-49
2021/08/17 06:00:54;;;;;;;4.57;3.00;;;;;;;18.79;58.48;100558.31;4994951;28;20065;-48
2021/08/17 06:03:20;;;;;;;2.88;2.67;;;;;;;18.82;58.51;100568.84;4996466;28;20022;-48
2021/08/17 06:05:45;;;;;;;3.20;2.85;;;;;;;18.79;58.61;100571.66;4994549;28;20027;-48
2021/08/17 06:08:10;;;;;;;4.18;3.28;;;;;;;18.79;58.49;100569.00;4995777;28;20041;-48
2021/08/17 06:10:35;;;;;;;5.25;3.30;;;;;;;18.79;58.45;100566.31;4997362;28;20413;-48
2021/08/17 06:13:01;;;;;;;3.55;3.17;;;;;;;18.77;58.60;100578.84;4998164;28;20478;-49
2021/08/17 06:15:26;;;;;;;5.40;3.20;;;;;;;18.76;58.47;100576.25;4994721;28;20026;-49
2021/08/17 06:17:51;;;;;;;4.72;3.40;;;;;;;18.77;58.58;100591.38;5002368;28;20041;-49
2021/08/17 06:20:17;;;;;;;4.18;3.22;;;;;;;18.74;58.46;100587.00;4996735;28;20025;-49
2021/08/17 06:22:42;;;;;;;6.28;3.40;;;;;;;18.76;58.41;100593.16;5000459;28;20022;-49
2021/08/17 06:25:08;;;;;;;4.18;3.45;;;;;;;18.75;58.44;100594.09;4995241;28;20068;-48
2021/08/17 06:27:35;;;;;;;5.38;3.03;;;;;;;18.72;58.38;100594.25;4999203;28;20030;-49
2021/08/17 06:30:00;;;;;;;4.95;3.33;;;;;;;18.72;58.39;100600.47;4997721;28;20018;-49
2021/08/17 06:32:26;;;;;;;3.28;2.95;;;;;;;18.71;58.42;100597.84;4992929;28;20118;-48
2021/08/17 06:34:51;;;;;;;6.07;4.00;;;;;;;18.72;58.39;100602.25;4995040;28;20041;-48
2021/08/17 06:37:16;;;;;;;4.78;3.30;;;;;;;18.71;58.22;100592.50;4998728;28;20022;-48
2021/08/17 06:39:42;;;;;;;5.47;3.33;;;;;;;18.69;58.46;100597.91;4991999;28;20141;-49
2021/08/17 06:42:07;;;;;;;5.03;3.72;;;;;;;18.69;58.37;100597.91;4995010;28;20501;-49
2021/08/17 06:44:32;;;;;;;4.20;3.47;;;;;;;18.66;58.64;100606.06;4996058;28;20026;-48
2021/08/17 06:46:58;;;;;;;3.22;2.88;;;;;;;18.64;58.32;100596.38;4993635;28;20061;-49
2021/08/17 06:49:23;;;;;;;5.50;3.30;;;;;;;18.69;58.45;100605.06;4993580;28;20586;-49
2021/08/17 06:51:48;;;;;;;5.22;3.70;;;;;;;18.66;58.31;100602.50;4992668;28;20137;-49
2021/08/17 06:54:14;;;;;;;6.90;3.63;;;;;;;18.65;58.49;100595.44;4994404;28;20041;-49
2021/08/17 06:56:39;;;;;;;5.15;2.92;;;;;;;18.65;58.47;100609.69;4992075;28;20414;-49
2021/08/17 06:59:04;;;;;;;4.80;3.53;;;;;;;18.65;58.57;100595.44;4995802;28;20041;-49
2021/08/17 07:01:30;;;;;;;5.07;3.63;;;;;;;18.62;58.23;100595.56;4996919;28;20030;-49
2021/08/17 07:03:55;;;;;;;5.70;3.55;;;;;;;18.64;58.23;100593.72;4995809;28;20030;-49
2021/08/17 07:06:20;;;;;;;4.97;3.47;;;;;;;18.63;58.43;100599.97;4994884;28;20037;-49
2021/08/17 07:08:45;;;;;;;5.10;3.97;;;;;;;18.61;58.47;100591.19;4997029;28;20038;-49
2021/08/17 07:11:11;;;;;;;3.55;3.17;;;;;;;18.62;58.44;100603.59;4993801;28;20479;-49
2021/08/17 07:13:36;;;;;;;5.45;3.67;;;;;;;18.58;58.13;100602.88;4993005;28;20029;-49
2021/08/17 07:16:01;;;;;;;4.57;3.25;;;;;;;18.58;58.49;100603.72;4993630;28;20042;-49
2021/08/17 07:18:27;;;;;;;5.07;3.30;;;;;;;18.58;58.34;100614.41;4993538;28;20037;-49
2021/08/17 07:20:52;;;;;;;4.25;3.40;;;;;;;18.59;58.23;100610.81;4993577;28;20061;-49
2021/08/17 07:23:18;;;;;;;4.25;3.58;;;;;;;18.57;58.25;100618.00;4994349;28;20112;-49
2021/08/17 07:25:44;;;;;;;8.13;3.60;;;;;;;18.55;58.23;100617.22;4996392;28;20113;-49
2021/08/17 07:28:10;;;;;;;5.35;3.35;;;;;;;18.55;58.39;100629.72;4996119;28;20027;-49
2021/08/17 07:30:37;;;;;;;3.75;3.38;;;;;;;18.54;58.22;100626.16;4993473;28;20026;-49
2021/08/17 07:33:02;;;;;;;4.93;3.78;;;;;;;18.52;58.15;100635.16;4995845;28;20032;-49
2021/08/17 07:35:27;;;;;;;5.47;3.55;;;;;;;18.56;57.98;100632.31;4992684;28;20109;-49
2021/08/17 07:37:54;;;;;;;5.65;3.42;;;;;;;18.51;58.28;100634.28;4993766;28;20033;-49
2021/08/17 07:40:20;;;;;;;6.75;3.65;;;;;;;18.53;58.11;100640.44;4991833;28;20081;-49
2021/08/17 07:42:45;;;;;;;5.65;3.88;;;;;;;18.52;58.05;100648.53;4992973;28;20030;-49
2021/08/17 07:45:11;;;;;;;4.63;3.50;;;;;;;18.50;58.16;100642.41;4993333;28;20105;-49
2021/08/17 07:47:38;;;;;;;4.53;3.78;;;;;;;18.51;58.16;100644.13;4993098;28;20398;-49
2021/08/17 07:50:05;;;;;;;4.47;3.55;;;;;;;18.49;58.11;100641.53;4992850;28;20483;-49
2021/08/17 07:52:32;;;;;;;3.97;3.67;;;;;;;18.49;58.10;100644.19;4993463;28;20018;-49
2021/08/17 07:54:59;;;;;;;3.88;3.00;;;;;;;18.50;58.01;100643.25;4986607;28;20118;-49
2021/08/17 07:57:24;;;;;;;7.15;4.38;;;;;;;18.49;58.09;100645.97;4975778;28;20410;-49
2021/08/17 07:59:50;;;;;;;5.10;3.78;;;;;;;18.50;58.48;100642.41;4981527;28;20031;-49
2021/08/17 08:02:15;;;;;;;7.50;4.10;;;;;;;18.47;58.24;100638.03;4977792;28;20031;-49
2021/08/17 08:04:40;;;;;;;4.97;3.45;;;;;;;18.46;58.18;100650.53;4973975;28;20080;-49
2021/08/17 08:07:05;;;;;;;6.28;3.72;;;;;;;18.45;58.03;100645.25;4975250;28;20030;-49
2021/08/17 08:09:31;;;;;;;4.05;3.55;;;;;;;18.45;58.00;100653.25;4976820;28;20474;-49
2021/08/17 08:11:56;;;;;;;3.67;3.38;;;;;;;18.46;57.78;100658.53;4977330;28;20114;-49
2021/08/17 08:14:21;;;;;;;7.20;3.47;;;;;;;18.47;58.07;100659.41;4977456;28;20027;-49
2021/08/17 08:16:47;;;;;;;5.30;3.92;;;;;;;18.43;57.83;100658.66;4975680;28;20085;-49
2021/08/17 08:19:13;;;;;;;4.05;3.38;;;;;;;18.42;57.77;100664.06;4975095;28;20062;-49
2021/08/17 08:21:38;;;;;;;5.80;3.25;;;;;;;18.41;57.62;100660.53;4976878;28;20490;-49
2021/08/17 08:24:03;;;;;;;4.65;3.75;;;;;;;18.41;57.50;100671.19;4976247;28;20109;-49
2021/08/17 08:26:29;;;;;;;5.10;3.58;;;;;;;18.40;57.84;100668.59;4974832;28;20023;-49
2021/08/17 08:28:54;;;;;;;7.35;4.38;;;;;;;18.41;57.63;100665.84;4976333;28;20495;-49
2021/08/17 08:31:21;;;;;;;5.55;3.33;;;;;;;18.39;57.82;100666.88;4977566;28;20023;-49
2021/08/17 08:33:47;;;;;;;4.18;3.78;;;;;;;18.40;57.28;100673.94;4977170;28;20030;-49
2021/08/17 08:36:12;;;;;;;4.47;4.07;;;;;;;18.41;57.97;100670.34;4973792;28;20077;-49
2021/08/17 08:38:38;;;;;;;5.82;3.72;;;;;;;18.41;57.49;100670.34;4974084;28;20054;-49
2021/08/17 08:41:03;;;;;;;6.10;3.95;;;;;;;18.39;57.39;100680.22;4973726;28;20027;-49
2021/08/17 08:43:29;;;;;;;7.15;3.78;;;;;;;18.36;56.98;100685.69;4974593;28;20490;-49
2021/08/17 08:45:55;;;;;;;3.60;3.30;;;;;;;18.38;57.29;100682.03;4977290;28;20045;-49
2021/08/17 08:48:22;;;;;;;5.75;3.42;;;;;;;18.37;57.09;100687.44;4977577;28;20022;-49
2021/08/17 08:50:48;;;;;;;5.90;3.50;;;;;;;18.38;57.14;100686.50;4979318;28;20037;-49
2021/08/17 08:53:14;;;;;;;3.83;3.40;;;;;;;18.38;57.06;100681.16;4975513;28;20027;-49
2021/08/17 08:55:41;;;;;;;6.13;3.50;;;;;;;18.39;57.04;100682.88;4983394;28;20132;-49
2021/08/17 08:58:09;;;;;;;6.65;3.40;;;;;;;18.36;56.62;100675.00;4995353;28;20022;-49
2021/08/17 09:00:34;;;;;;;5.90;3.33;;;;;;;18.34;56.58;100675.94;4995933;28;20049;-49
2021/08/17 09:02:59;;;;;;;3.72;3.33;;;;;;;18.36;56.64;100691.03;4993880;28;20024;-49
2021/08/17 09:05:25;;;;;;;5.47;3.63;;;;;;;18.36;56.74;100683.88;4993738;28;20026;-49
2021/08/17 09:07:51;;;;;;;4.45;3.45;;;;;;;18.33;56.40;100682.22;4991343;28;20030;-49
2021/08/17 09:10:24;;;;;;;5.28;3.28;;;;;;;18.34;56.38;100673.28;4992414;28;20042;-49
2021/08/17 09:13:05;;;;;;;4.55;3.30;;;;;;;18.33;56.63;100674.22;4989875;28;20485;-49
2021/08/17 09:15:33;;;;;;;5.32;3.58;;;;;;;18.34;56.63;100672.38;4992693;28;20037;-49
2021/08/17 09:18:05;;;;;;;4.80;3.28;;;;;;;18.36;56.42;100675.00;4993329;28;20394;-49
2021/08/17 09:20:44;;;;;;;4.70;3.70;;;;;;;18.36;56.59;100683.00;4994912;28;20018;-49
2021/08/17 09:23:38;;;;;;;4.22;3.45;;;;;;;18.34;56.63;100683.94;4992080;28;20025;-49
2021/08/17 09:26:21;;;;;;;6.15;3.80;;;;;;;18.34;56.62;100689.28;4988706;28;20054;-49
2021/08/17 09:28:55;;;;;;;4.22;3.30;;;;;;;18.32;56.50;100692.97;4993488;28;20018;-49
2021/08/17 09:31:31;;;;;;;5.13;3.20;;;;;;;18.32;56.65;100683.16;4995374;28;20033;-49
2021/08/17 09:33:56;;;;;;;4.18;3.33;;;;;;;18.32;56.94;100698.31;4990456;28;20046;-49
2021/08/17 09:36:21;;;;;;;4.35;3.28;;;;;;;18.32;56.64;100693.84;4991619;28;20025;-49
2021/08/17 09:38:47;;;;;;;3.70;3.00;;;;;;;18.31;56.50;100685.91;4995133;28;20026;-49
2021/08/17 09:41:21;;;;;;;4.35;3.58;;;;;;;18.32;56.61;100682.28;4990226;28;20601;-49
2021/08/17 09:44:02;;;;;;;3.95;3.33;;;;;;;18.31;56.56;100689.41;4988717;28;20022;-50
2021/08/17 09:46:33;;;;;;;5.78;3.08;;;;;;;18.31;56.27;100686.75;4990158;28;20113;-49
2021/08/17 09:49:21;;;;;;;5.32;3.35;;;;;;;18.30;56.51;100677.00;4996706;28;20482;-49
2021/08/17 09:51:47;;;;;;;4.32;3.00;;;;;;;18.32;56.51;100680.50;4993654;28;20026;-49
2021/08/17 09:54:17;;;;;;;3.63;3.30;;;;;;;18.31;56.53;100681.41;4991181;28;20037;-49
2021/08/17 09:56:43;;;;;;;3.60;3.20;;;;;;;18.32;56.43;100684.94;4993607;28;20021;-49
2021/08/17 09:59:17;;;;;;;3.90;3.28;;;;;;;18.29;56.11;100685.06;5006950;28;20030;-49
2021/08/17 10:01:42;;;;;;;4.07;3.10;;;;;;;18.31;56.56;100684.06;4991026;28;20057;-48
2021/08/17 10:04:08;;;;;;;4.97;3.45;;;;;;;18.33;56.30;100690.22;4991307;28;20527;-49
2021/08/17 10:06:33;;;;;;;5.45;3.70;;;;;;;18.32;56.60;100677.81;4990683;28;20034;-49
2021/08/17 10:09:00;;;;;;;4.80;3.67;;;;;;;18.30;56.01;100687.69;4992952;28;20483;-49
2021/08/17 10:11:26;;;;;;;5.32;3.47;;;;;;;18.30;55.96;100690.34;4992392;28;20105;-49
2021/08/17 10:13:51;;;;;;;5.75;3.22;;;;;;;18.30;55.79;100695.69;4991879;28;20125;-49
2021/08/17 10:16:17;;;;;;;6.78;3.72;;;;;;;18.31;56.20;100692.06;4990919;28;20104;-49
2021/08/17 10:18:44;;;;;;;3.78;3.00;;;;;;;18.30;56.23;100689.47;4989301;28;20061;-49
2021/08/17 10:21:10;;;;;;;3.92;3.28;;;;;;;18.29;56.23;100683.28;4990142;28;20113;-49
2021/08/17 10:23:40;;;;;;;4.57;3.75;;;;;;;18.30;55.98;100669.00;4993376;28;20462;-48
2021/08/17 10:26:05;;;;;;;5.85;3.67;;;;;;;18.30;56.04;100684.13;4991283;28;20018;-49
2021/08/17 10:28:36;;;;;;;4.43;3.30;;;;;;;18.30;56.34;100687.69;4993346;28;20045;-48
2021/08/17 10:31:14;;;;;;;6.15;3.70;;;;;;;18.28;55.85;100689.53;4991097;28;20081;-49
2021/08/17 10:33:53;;;;;;;3.90;2.95;;;;;;;18.32;55.93;100682.28;4991709;28;20549;-49
2021/08/17 10:36:41;;;;;;;4.57;3.03;;;;;;;18.33;55.87;100695.56;4990463;28;20026;-48
2021/08/17 10:39:26;;;;;;;3.70;3.35;;;;;;;18.28;55.69;100681.53;4993725;28;20031;-47
2021/08/17 10:41:53;;;;;;;6.35;3.70;;;;;;;18.29;55.80;100677.06;4996986;28;20492;-47
2021/08/17 10:44:24;;;;;;;4.85;3.63;;;;;;;18.26;55.58;100678.06;4998364;28;20022;-48
2021/08/17 10:46:55;;;;;;;4.05;3.22;;;;;;;18.25;55.35;100668.31;4990040;28;20109;-47
2021/08/17 10:49:34;;;;;;;3.40;2.72;;;;;;;18.26;55.41;100683.41;4994313;28;20105;-47
2021/08/17 10:52:04;;;;;;;5.05;3.35;;;;;;;18.27;55.46;100661.09;4995452;28;20018;-48
2021/08/17 10:54:31;;;;;;;5.60;3.63;;;;;;;18.29;55.29;100674.41;5013728;28;20030;-47
2021/08/17 10:57:14;;;;;;;4.63;3.40;;;;;;;18.29;55.36;100672.59;4993703;28;20474;-47
2021/08/17 10:59:40;;;;;;;4.05;3.22;;;;;;;18.29;55.12;100661.94;4994696;28;20022;-47
2021/08/17 11:02:07;;;;;;;3.95;3.15;;;;;;;18.26;55.33;100662.06;4996961;28;20022;-48
2021/08/17 11:04:44;;;;;;;3.28;2.97;;;;;;;18.28;54.90;100654.81;4997427;28;20425;-47
2021/08/17 11:07:27;;;;;;;4.22;2.63;;;;;;;18.30;55.02;100650.31;4993084;28;20130;-48
2021/08/17 11:09:54;;;;;;;3.90;3.10;;;;;;;18.33;54.43;100646.63;4997168;28;20390;-48
2021/08/17 11:12:20;;;;;;;5.38;4.18;;;;;;;18.31;55.09;100646.69;4996351;28;20445;-48
2021/08/17 11:14:47;;;;;;;3.30;3.00;;;;;;;18.30;54.94;100663.66;4999812;28;20025;-48
2021/08/17 11:17:17;;;;;;;3.67;2.97;;;;;;;18.32;55.13;100656.47;4995719;28;20121;-48
2021/08/17 11:19:48;;;;;;;3.80;2.90;;;;;;;18.33;54.97;100651.97;4995932;28;20033;-48
2021/08/17 11:22:18;;;;;;;6.10;3.13;;;;;;;18.34;55.19;100659.03;5000132;28;20482;-48